Time;durP1;ratioP1;P1;durP2;ratioP2;P2;SDS_P1;SDS_P2;PMS_P1;PMS_P2;Temp;Humidity;BMP_temperature;BMP_pressure;BME280_temperature;BME280_humidity;BME280_pressure;Samples;Min_cycle;Max_cycle;Signal;HPM_P1;HPM_P2
2023/06/04 00:01:38;;;;;;;2.10;1.40;;;;;;;14.87;69.81;98665.31;4126333;28;20211;-45
2023/06/04 00:03:39;;;;;;;2.78;1.83;;;;;;;14.69;69.85;98674.09;4111641;28;20230;-44
2023/06/04 00:05:42;;;;;;;2.42;1.85;;;;;;;14.70;69.99;98663.91;4096240;28;20215;-44
2023/06/04 00:07:43;;;;;;;2.03;1.40;;;;;;;14.54;69.82;98671.31;4112256;28;20262;-45
2023/06/04 00:09:46;;;;;;;1.73;1.20;;;;;;;14.59;69.68;98671.34;4109724;28;20222;-44
2023/06/04 00:11:48;;;;;;;2.65;1.52;;;;;;;14.68;69.73;98671.59;4113075;28;20203;-45
2023/06/04 00:13:50;;;;;;;2.95;1.77;;;;;;;14.61;69.82;98666.38;4108128;28;20229;-45
2023/06/04 00:15:52;;;;;;;3.60;2.00;;;;;;;14.58;69.96;98663.34;4113813;28;20256;-45
2023/06/04 00:17:54;;;;;;;1.67;1.52;;;;;;;14.51;70.24;98660.81;4105632;28;20621;-45
2023/06/04 00:19:55;;;;;;;4.07;1.70;;;;;;;14.43;70.34;98664.13;4110822;28;20226;-44
2023/06/04 00:21:57;;;;;;;2.70;1.70;;;;;;;14.48;70.61;98666.91;4111526;28;20337;-44
2023/06/04 00:24:00;;;;;;;7.20;1.30;;;;;;;14.43;70.55;98664.13;4107847;28;20238;-45
2023/06/04 00:26:02;;;;;;;3.95;1.95;;;;;;;14.30;70.72;98664.63;4108708;28;20214;-46
2023/06/04 00:28:03;;;;;;;1.90;1.58;;;;;;;14.31;70.38;98660.78;4108651;28;20211;-44
2023/06/04 00:30:07;;;;;;;2.17;1.42;;;;;;;14.39;70.33;98665.78;4114789;28;20289;-45
2023/06/04 00:32:09;;;;;;;1.33;1.20;;;;;;;14.30;70.34;98659.13;4105140;28;20805;-47
2023/06/04 00:34:11;;;;;;;2.28;1.65;;;;;;;14.29;70.40;98662.97;4108746;28;20238;-45
2023/06/04 00:36:12;;;;;;;1.90;1.70;;;;;;;14.33;70.37;98658.59;4110610;28;20254;-46
2023/06/04 00:38:14;;;;;;;3.50;1.42;;;;;;;14.34;69.82;98662.16;4112151;28;20673;-44
2023/06/04 00:40:16;;;;;;;1.95;1.63;;;;;;;14.28;69.99;98666.81;4127565;28;20261;-47
2023/06/04 00:42:18;;;;;;;1.38;1.20;;;;;;;14.22;70.03;98659.66;4110425;28;21194;-44
2023/06/04 00:44:21;;;;;;;2.30;1.50;;;;;;;14.27;70.22;98665.19;4110998;28;20242;-45
2023/06/04 00:46:25;;;;;;;2.45;1.58;;;;;;;14.21;70.18;98659.91;4109915;28;20207;-46
2023/06/04 00:48:27;;;;;;;2.58;1.25;;;;;;;14.22;70.42;98656.09;4110434;28;20234;-44
2023/06/04 00:50:30;;;;;;;2.60;1.20;;;;;;;14.20;70.48;98664.59;4091837;28;20212;-45
2023/06/04 00:52:32;;;;;;;2.80;1.23;;;;;;;14.16;70.59;98666.19;4109617;28;20544;-45
2023/06/04 00:54:34;;;;;;;3.03;2.10;;;;;;;14.19;70.77;98662.94;4108274;28;20254;-46
2023/06/04 00:56:37;;;;;;;2.38;1.40;;;;;;;14.16;70.82;98668.94;4110353;28;20759;-45
2023/06/04 00:58:39;;;;;;;3.00;1.90;;;;;;;14.13;71.12;98671.41;4109731;28;20210;-45
2023/06/04 01:00:42;;;;;;;1.73;1.63;;;;;;;14.05;71.28;98671.94;4111090;28;20235;-44
2023/06/04 01:02:46;;;;;;;1.88;1.45;;;;;;;14.00;71.79;98664.50;4113558;28;20290;-45
2023/06/04 01:04:55;;;;;;;2.42;1.40;;;;;;;14.04;71.81;98664.78;4098569;28;20255;-45
2023/06/04 01:07:00;;;;;;;1.50;1.40;;;;;;;14.02;71.79;98667.78;4126076;28;20210;-45
2023/06/04 01:09:02;;;;;;;8.05;1.75;;;;;;;13.91;72.30;98671.56;4108328;28;20215;-45
2023/06/04 01:11:03;;;;;;;1.83;1.58;;;;;;;13.83;72.54;98685.84;4113515;28;20840;-45
2023/06/04 01:13:06;;;;;;;1.50;1.33;;;;;;;13.84;72.13;98676.50;4113120;28;20230;-45
2023/06/04 01:15:10;;;;;;;2.30;1.60;;;;;;;13.89;72.10;98682.03;4109914;28;20218;-46
2023/06/04 01:17:19;;;;;;;1.65;1.55;;;;;;;13.83;71.69;98677.59;4097270;28;20273;-45
2023/06/04 01:19:51;;;;;;;2.35;1.40;;;;;;;13.81;71.97;98671.53;4113287;28;20221;-46
2023/06/04 01:21:54;;;;;;;2.22;1.38;;;;;;;13.84;72.10;98676.50;4111332;28;20211;-45
2023/06/04 01:23:59;;;;;;;1.48;1.33;;;;;;;13.89;71.84;98673.78;4114092;28;20230;-44
2023/06/04 01:26:03;;;;;;;2.63;1.92;;;;;;;13.88;71.60;98661.13;4106147;28;20212;-45
2023/06/04 01:28:06;;;;;;;1.70;1.15;;;;;;;13.86;72.04;98663.31;4108345;28;20691;-47
2023/06/04 01:30:09;;;;;;;3.60;1.50;;;;;;;13.84;72.07;98676.50;4112690;28;20203;-45
2023/06/04 01:32:10;;;;;;;1.83;1.27;;;;;;;13.79;72.00;98668.25;4115466;28;20214;-44
2023/06/04 01:34:12;;;;;;;1.55;1.35;;;;;;;13.80;72.07;98672.63;4113196;28;20262;-45
2023/06/04 01:36:15;;;;;;;1.23;1.13;;;;;;;13.74;72.36;98670.09;4113461;28;20218;-45
2023/06/04 01:38:17;;;;;;;1.70;1.38;;;;;;;13.71;72.01;98676.97;4129829;28;20220;-45
2023/06/04 01:40:20;;;;;;;1.98;1.60;;;;;;;13.69;72.41;98679.16;4110415;28;20233;-46
2023/06/04 01:42:22;;;;;;;1.73;1.60;;;;;;;13.69;71.98;98673.66;4103576;28;20211;-45
2023/06/04 01:44:23;;;;;;;2.13;1.58;;;;;;;13.69;71.78;98673.66;4127627;28;20237;-45
2023/06/04 01:46:25;;;;;;;1.20;1.10;;;;;;;13.61;71.58;98676.91;4112925;28;20912;-45
2023/06/04 01:48:27;;;;;;;1.27;1.17;;;;;;;13.58;71.51;98671.13;4104890;28;20774;-45
2023/06/04 01:50:29;;;;;;;1.80;1.63;;;;;;;13.63;71.02;98677.47;4107725;28;20253;-46
2023/06/04 01:52:31;;;;;;;1.17;1.08;;;;;;;13.60;70.60;98680.78;4091718;28;20981;-45
2023/06/04 01:54:33;;;;;;;1.92;1.42;;;;;;;13.60;70.51;98675.28;4111480;28;20214;-46
2023/06/04 01:56:35;;;;;;;1.98;1.30;;;;;;;13.57;70.12;98672.22;4110883;28;20203;-45
2023/06/04 01:58:37;;;;;;;1.75;1.20;;;;;;;13.59;69.74;98673.63;4110098;28;20207;-45
2023/06/04 02:00:38;;;;;;;1.27;1.00;;;;;;;13.43;68.25;98671.84;4096351;28;20681;-46
2023/06/04 02:02:43;;;;;;;1.73;1.38;;;;;;;13.48;69.27;98671.88;4126121;28;20214;-44
2023/06/04 02:04:46;;;;;;;1.52;1.40;;;;;;;13.50;69.28;98671.63;4113920;28;20310;-45
2023/06/04 02:06:48;;;;;;;1.65;1.10;;;;;;;13.57;69.23;98672.22;4109402;28;20839;-47
2023/06/04 02:08:50;;;;;;;2.13;1.40;;;;;;;13.50;69.10;98664.19;4092413;28;20215;-44
2023/06/04 02:10:52;;;;;;;3.75;1.08;;;;;;;13.53;68.90;98668.34;4111730;28;20213;-45
2023/06/04 02:12:59;;;;;;;1.30;1.10;;;;;;;13.46;68.64;98665.84;4111645;28;20227;-46
2023/06/04 02:15:01;;;;;;;1.30;1.05;;;;;;;13.48;68.10;98666.38;4109798;28;20230;-47
2023/06/04 02:17:04;;;;;;;3.72;1.30;;;;;;;13.44;68.03;98670.75;4111685;28;20215;-45
2023/06/04 02:19:06;;;;;;;2.38;1.10;;;;;;;13.46;68.08;98673.25;4109246;28;20218;-45
2023/06/04 02:21:07;;;;;;;1.27;1.17;;;;;;;13.44;68.68;98670.75;4126719;28;20285;-45
2023/06/04 02:23:09;;;;;;;1.45;1.35;;;;;;;13.37;68.43;98664.66;4110579;28;20780;-47
2023/06/04 02:25:11;;;;;;;1.75;1.60;;;;;;;13.29;68.40;98667.91;4110444;28;20225;-46
2023/06/04 02:27:14;;;;;;;2.10;1.30;;;;;;;13.30;68.51;98666.81;4108141;28;20207;-45
2023/06/04 02:29:16;;;;;;;1.85;1.30;;;;;;;13.27;68.01;98681.09;4112262;28;20223;-45
2023/06/04 02:31:18;;;;;;;1.40;1.23;;;;;;;13.25;67.91;98672.25;4096909;28;20290;-45
2023/06/04 02:33:20;;;;;;;6.68;1.08;;;;;;;13.18;68.01;98674.41;4113365;28;20313;-45
2023/06/04 02:35:23;;;;;;;1.15;1.05;;;;;;;13.14;67.86;98676.03;4110803;28;20721;-45
2023/06/04 02:37:25;;;;;;;1.30;1.20;;;;;;;13.10;67.87;98674.88;4112260;28;20218;-45
2023/06/04 02:39:27;;;;;;;2.08;1.10;;;;;;;13.07;68.38;98669.94;4112605;28;20694;-45
2023/06/04 02:41:29;;;;;;;2.17;1.25;;;;;;;13.05;68.44;98672.09;4114283;28;20226;-45
2023/06/04 02:43:30;;;;;;;1.55;1.45;;;;;;;13.03;68.69;98671.53;4106070;28;20301;-45
2023/06/04 02:45:32;;;;;;;1.88;1.75;;;;;;;12.95;68.47;98672.03;4114214;28;20700;-46
2023/06/04 02:47:34;;;;;;;2.45;1.10;;;;;;;12.91;69.12;98668.09;4112204;28;20242;-45
2023/06/04 02:49:36;;;;;;;1.35;1.10;;;;;;;12.93;68.95;98676.91;4094596;28;20318;-45
2023/06/04 02:51:37;;;;;;;1.00;1.00;;;;;;;12.89;69.09;98669.47;4110062;28;20688;-45
2023/06/04 02:53:39;;;;;;;3.03;1.65;;;;;;;12.85;69.52;98677.38;4112042;28;20700;-45
2023/06/04 02:55:41;;;;;;;1.30;1.27;;;;;;;12.89;69.60;98673.03;4111567;28;20640;-44
2023/06/04 02:57:43;;;;;;;1.40;1.30;;;;;;;12.85;69.75;98679.31;4109164;28;20210;-44
2023/06/04 02:59:45;;;;;;;2.35;1.42;;;;;;;12.84;70.20;98678.47;4127396;28;20581;-46
2023/06/04 03:01:47;;;;;;;2.30;1.33;;;;;;;12.81;70.39;98669.91;4112254;28;20665;-45
2023/06/04 03:03:49;;;;;;;1.30;1.20;;;;;;;12.74;70.74;98681.13;4111064;28;20855;-45
2023/06/04 03:05:52;;;;;;;4.90;1.20;;;;;;;12.75;70.83;98684.69;4096107;29;20207;-45
2023/06/04 03:07:56;;;;;;;2.25;1.15;;;;;;;12.67;70.82;98685.16;4114248;28;20218;-45
2023/06/04 03:09:58;;;;;;;1.30;1.20;;;;;;;12.63;71.02;98684.03;4109267;28;20602;-45
2023/06/04 03:12:03;;;;;;;1.05;0.95;;;;;;;12.62;70.97;98683.19;4110490;28;20963;-44
2023/06/04 03:14:05;;;;;;;1.63;1.40;;;;;;;12.62;71.49;98682.34;4110859;28;20226;-45
2023/06/04 03:16:10;;;;;;;2.38;1.10;;;;;;;12.61;71.69;98687.03;4110275;28;20209;-45
2023/06/04 03:18:11;;;;;;;1.67;1.40;;;;;;;12.51;71.74;98675.94;4111384;28;20305;-45
2023/06/04 03:20:13;;;;;;;1.83;1.20;;;;;;;12.50;72.12;98673.47;4111665;28;20237;-44
2023/06/04 03:22:15;;;;;;;2.42;1.63;;;;;;;12.49;72.26;98683.59;4095896;28;20682;-45
2023/06/04 03:24:16;;;;;;;2.78;1.85;;;;;;;12.41;72.48;98684.06;4112430;28;20277;-45
2023/06/04 03:26:18;;;;;;;4.28;2.08;;;;;;;12.37;72.58;98685.66;4111250;28;20211;-45
2023/06/04 03:28:20;;;;;;;2.00;1.60;;;;;;;12.32;72.92;98682.88;4111783;28;20725;-44
2023/06/04 03:30:22;;;;;;;2.08;1.50;;;;;;;12.35;72.94;98676.88;4111905;28;20245;-45
2023/06/04 03:32:23;;;;;;;2.63;1.40;;;;;;;12.31;73.11;98677.66;4111409;28;20222;-46
2023/06/04 03:34:26;;;;;;;1.92;1.63;;;;;;;12.31;73.16;98678.47;4090072;29;20238;-45
2023/06/04 03:36:31;;;;;;;3.20;1.55;;;;;;;12.28;73.52;98681.72;4126614;28;20650;-45
2023/06/04 03:38:33;;;;;;;2.95;1.42;;;;;;;12.20;73.41;98679.44;4111363;28;20763;-45
2023/06/04 03:40:35;;;;;;;2.55;1.45;;;;;;;12.20;73.48;98671.22;4125131;28;20770;-45
2023/06/04 03:42:37;;;;;;;3.25;1.95;;;;;;;12.16;73.85;98678.28;4110891;28;20203;-45
2023/06/04 03:44:38;;;;;;;2.15;1.45;;;;;;;12.12;73.56;98674.38;4111675;28;20206;-45
2023/06/04 03:46:41;;;;;;;2.97;1.48;;;;;;;12.14;73.44;98674.13;4109414;28;20206;-44
2023/06/04 03:48:43;;;;;;;3.58;1.38;;;;;;;12.12;73.60;98671.63;4110617;28;20302;-45
2023/06/04 03:50:45;;;;;;;1.85;1.52;;;;;;;12.10;73.54;98678.50;4108871;28;20681;-44
2023/06/04 03:52:51;;;;;;;4.07;1.50;;;;;;;12.12;73.60;98679.06;4110895;28;20206;-45
2023/06/04 03:54:52;;;;;;;4.03;1.80;;;;;;;12.09;73.82;98682.28;4106932;28;20211;-45
2023/06/04 03:56:54;;;;;;;1.95;1.15;;;;;;;12.10;74.34;98684.78;4105330;28;20214;-44
2023/06/04 03:58:56;;;;;;;1.75;1.50;;;;;;;12.09;74.24;98688.63;4105124;28;20218;-44
2023/06/04 04:00:58;;;;;;;2.03;1.33;;;;;;;12.04;74.30;98690.50;4110849;28;20234;-44
2023/06/04 04:02:59;;;;;;;3.17;1.00;;;;;;;12.02;74.46;98693.47;4109696;28;20230;-44
2023/06/04 04:05:02;;;;;;;1.63;1.20;;;;;;;12.03;74.41;98695.13;4106922;28;20346;-45
2023/06/04 04:07:04;;;;;;;1.92;1.60;;;;;;;12.04;74.58;98694.03;4110019;28;20209;-44
2023/06/04 04:09:09;;;;;;;2.75;1.52;;;;;;;12.06;74.44;98686.41;4110557;28;20692;-44
2023/06/04 04:11:17;;;;;;;3.67;1.30;;;;;;;12.07;74.46;98690.81;4108292;28;20257;-45
2023/06/04 04:13:18;;;;;;;2.60;1.33;;;;;;;12.05;74.50;98692.94;4110897;28;20280;-44
2023/06/04 04:15:20;;;;;;;1.65;1.50;;;;;;;12.08;74.71;98686.97;4111252;28;20269;-45
2023/06/04 04:17:22;;;;;;;2.50;1.20;;;;;;;12.09;74.32;98688.63;4094138;28;20254;-45
2023/06/04 04:19:25;;;;;;;4.72;1.63;;;;;;;12.10;74.47;98690.28;4109948;28;20238;-45
2023/06/04 04:21:26;;;;;;;2.25;1.40;;;;;;;12.10;75.06;98694.97;4123969;28;20280;-44
2023/06/04 04:23:29;;;;;;;1.88;1.52;;;;;;;12.07;75.05;98700.94;4109973;28;20676;-44
2023/06/04 04:25:32;;;;;;;1.55;1.10;;;;;;;12.08;75.45;98691.63;4106401;28;20222;-44
2023/06/04 04:27:38;;;;;;;2.13;1.60;;;;;;;12.10;75.65;98705.94;4094707;28;20211;-44
2023/06/04 04:29:42;;;;;;;1.52;1.38;;;;;;;12.07;75.90;98688.06;4111653;28;20207;-43
2023/06/04 04:31:44;;;;;;;5.15;1.23;;;;;;;12.07;75.45;98690.81;4109957;28;20206;-45
2023/06/04 04:33:46;;;;;;;1.58;1.48;;;;;;;12.18;75.08;98698.06;4112385;28;21039;-45
2023/06/04 04:35:48;;;;;;;1.73;1.63;;;;;;;12.19;75.22;98688.78;4114555;28;20664;-44
2023/06/04 04:37:49;;;;;;;11.10;1.85;;;;;;;12.23;74.87;98700.88;4097614;28;20259;-44
2023/06/04 04:39:51;;;;;;;3.47;1.42;;;;;;;12.21;74.70;98697.56;4113421;28;20284;-44
2023/06/04 04:41:55;;;;;;;2.13;1.20;;;;;;;12.24;74.50;98705.25;4110759;28;20239;-44
2023/06/04 04:44:03;;;;;;;2.70;1.42;;;;;;;12.30;74.39;98706.19;4107874;28;20795;-45
2023/06/04 04:46:05;;;;;;;1.50;1.23;;;;;;;12.31;74.84;98700.41;4113408;28;20576;-44
2023/06/04 04:48:07;;;;;;;1.70;1.20;;;;;;;12.35;74.78;98703.47;4112259;28;20735;-45
2023/06/04 04:50:10;;;;;;;5.75;2.20;;;;;;;12.34;74.92;98707.31;4113641;28;20215;-45
2023/06/04 04:52:11;;;;;;;2.35;2.20;;;;;;;12.37;75.53;98704.06;4127164;28;20232;-45
2023/06/04 04:54:13;;;;;;;1.30;1.20;;;;;;;12.40;75.43;98707.13;4112025;28;20270;-45
2023/06/04 04:56:15;;;;;;;2.63;1.45;;;;;;;12.47;75.50;98705.00;4112464;28;20207;-44
2023/06/04 04:58:17;;;;;;;1.60;1.20;;;;;;;12.50;75.72;98707.22;4112228;28;20211;-45
2023/06/04 05:00:20;;;;;;;2.22;1.23;;;;;;;12.56;75.17;98711.69;4107878;28;20214;-45
2023/06/04 05:02:21;;;;;;;1.88;1.50;;;;;;;12.63;74.81;98717.78;4112715;28;20235;-44
2023/06/04 05:04:23;;;;;;;1.83;1.55;;;;;;;12.69;74.75;98716.78;4113068;28;20241;-44
2023/06/04 05:06:25;;;;;;;1.50;1.38;;;;;;;12.74;74.91;98714.09;4112702;28;20250;-45
2023/06/04 05:08:27;;;;;;;2.33;1.75;;;;;;;12.79;75.02;98707.81;4114915;28;20207;-45
2023/06/04 05:10:28;;;;;;;1.33;1.10;;;;;;;12.88;74.72;98715.31;4112561;28;20262;-44
2023/06/04 05:12:33;;;;;;;1.48;1.38;;;;;;;12.97;74.33;98712.97;4113213;28;20225;-45
2023/06/04 05:14:36;;;;;;;1.02;0.98;;;;;;;13.03;73.56;98715.50;4111146;28;20203;-45
2023/06/04 05:16:40;;;;;;;1.27;1.13;;;;;;;13.14;73.15;98720.00;4111488;28;20231;-45
2023/06/04 05:18:47;;;;;;;1.42;1.35;;;;;;;13.13;70.62;98723.00;4113496;28;20242;-44
2023/06/04 05:20:49;;;;;;;1.80;1.35;;;;;;;13.19;70.46;98722.78;4113090;28;20214;-45
2023/06/04 05:22:51;;;;;;;0.93;0.90;;;;;;;13.10;69.10;98729.03;4109997;28;20263;-44
2023/06/04 05:24:53;;;;;;;1.77;1.02;;;;;;;13.00;67.48;98724.25;4114007;28;20290;-45
2023/06/04 05:26:56;;;;;;;1.75;1.27;;;;;;;13.15;66.76;98724.41;4106167;28;20587;-45
2023/06/04 05:28:58;;;;;;;1.95;1.02;;;;;;;13.05;65.29;98727.03;4106569;28;20215;-45
2023/06/04 05:31:00;;;;;;;7.32;1.17;;;;;;;13.24;65.61;98731.06;4113020;28;20651;-44
2023/06/04 05:33:02;;;;;;;2.15;1.20;;;;;;;13.33;65.87;98728.66;4096226;28;20243;-45
2023/06/04 05:35:04;;;;;;;7.20;1.48;;;;;;;13.45;66.42;98727.41;4112378;28;20219;-45
2023/06/04 05:37:08;;;;;;;1.48;1.00;;;;;;;13.56;65.10;98731.06;4111571;28;20589;-44
2023/06/04 05:39:13;;;;;;;2.00;1.20;;;;;;;13.80;64.02;98729.56;4112967;28;20783;-45
2023/06/04 05:41:15;;;;;;;1.60;1.05;;;;;;;13.96;64.42;98734.09;4111757;28;20263;-47
2023/06/04 05:43:17;;;;;;;1.25;0.80;;;;;;;13.99;63.02;98739.88;4112351;28;20249;-45
2023/06/04 05:45:20;;;;;;;2.88;1.10;;;;;;;14.01;61.68;98743.19;4111138;28;20211;-45
2023/06/04 05:47:22;;;;;;;2.65;1.00;;;;;;;14.20;61.01;98740.84;4127402;28;20249;-45
2023/06/04 05:49:25;;;;;;;2.90;1.65;;;;;;;14.56;62.95;98737.16;4111877;28;20198;-45
2023/06/04 05:51:26;;;;;;;1.77;1.05;;;;;;;14.88;64.26;98741.38;4112716;28;20207;-45
2023/06/04 05:53:28;;;;;;;5.55;1.20;;;;;;;15.01;62.38;98734.50;4106387;28;20235;-45
2023/06/04 05:55:30;;;;;;;1.40;1.00;;;;;;;15.29;61.87;98731.25;4104902;28;20214;-44
2023/06/04 05:57:31;;;;;;;6.32;1.25;;;;;;;15.48;61.38;98738.72;4113170;28;20206;-45
2023/06/04 05:59:33;;;;;;;1.13;0.95;;;;;;;15.69;60.79;98745.88;4110453;28;20312;-45
2023/06/04 06:01:36;;;;;;;1.35;0.90;;;;;;;15.95;60.72;98736.44;4111323;28;20299;-44
2023/06/04 06:03:38;;;;;;;3.72;1.10;;;;;;;16.15;59.10;98741.94;4108856;28;20617;-45
2023/06/04 06:05:39;;;;;;;0.65;0.65;;;;;;;16.20;58.71;98741.91;4094214;28;20207;-44
2023/06/04 06:07:41;;;;;;;3.72;0.93;;;;;;;16.42;59.23;98752.66;4127148;28;20202;-45
2023/06/04 06:09:43;;;;;;;1.63;1.38;;;;;;;16.42;59.69;98749.91;4111915;28;20237;-45
2023/06/04 06:11:45;;;;;;;1.30;0.85;;;;;;;16.55;58.69;98750.09;4111135;28;20238;-46
2023/06/04 06:13:47;;;;;;;5.38;1.20;;;;;;;16.64;58.44;98748.41;4117756;28;20225;-46
2023/06/04 06:15:49;;;;;;;2.55;1.13;;;;;;;16.66;58.01;98745.38;4095976;28;20226;-45
2023/06/04 06:17:51;;;;;;;2.70;1.00;;;;;;;16.69;57.65;98751.16;4111505;28;20290;-45
2023/06/04 06:19:53;;;;;;;0.80;0.77;;;;;;;16.43;58.15;98752.34;4111725;28;20246;-45
2023/06/04 06:21:55;;;;;;;3.60;1.00;;;;;;;16.36;58.19;98756.50;4108563;28;20230;-44
2023/06/04 06:23:57;;;;;;;2.53;1.10;;;;;;;16.20;58.41;98764.00;4094575;28;20238;-44
2023/06/04 06:26:01;;;;;;;1.95;0.80;;;;;;;16.15;59.38;98764.00;4110052;28;20210;-44
2023/06/04 06:28:02;;;;;;;1.17;0.88;;;;;;;16.08;58.58;98760.72;4110312;28;20222;-45
2023/06/04 06:30:06;;;;;;;2.25;0.90;;;;;;;16.15;59.09;98764.00;4111283;28;20740;-45
2023/06/04 06:32:09;;;;;;;5.80;1.63;;;;;;;16.02;59.01;98756.31;4112591;28;20218;-45
2023/06/04 06:34:11;;;;;;;1.13;1.00;;;;;;;16.04;59.15;98756.84;4110197;28;20243;-46
2023/06/04 06:36:12;;;;;;;1.10;1.00;;;;;;;16.11;59.40;98765.69;4112017;28;20261;-45
2023/06/04 06:38:14;;;;;;;1.55;0.90;;;;;;;16.17;59.21;98770.06;4109854;28;20211;-44
2023/06/04 06:40:19;;;;;;;4.22;1.35;;;;;;;16.14;58.76;98778.94;4108700;28;20215;-45
2023/06/04 06:42:21;;;;;;;0.90;0.80;;;;;;;16.15;59.11;98764.00;4111412;28;20231;-44
2023/06/04 06:44:23;;;;;;;1.75;1.15;;;;;;;16.24;59.07;98775.31;4111888;28;20281;-45
2023/06/04 06:46:24;;;;;;;0.95;0.80;;;;;;;16.20;58.96;98772.28;4111130;28;20218;-44
2023/06/04 06:48:26;;;;;;;2.38;1.00;;;;;;;16.47;58.49;98764.50;4110881;28;20213;-45
2023/06/04 06:50:28;;;;;;;1.73;0.80;;;;;;;16.55;59.11;98772.22;4107329;28;20594;-45
2023/06/04 06:52:30;;;;;;;1.58;1.10;;;;;;;16.64;58.82;98773.28;4105682;28;20215;-47
2023/06/04 06:54:35;;;;;;;2.67;1.10;;;;;;;17.00;58.06;98777.53;4108784;28;20686;-45
2023/06/04 06:56:37;;;;;;;2.67;1.00;;;;;;;17.24;57.70;98775.72;4111359;28;20640;-45
2023/06/04 06:58:38;;;;;;;3.15;1.23;;;;;;;17.43;56.97;98780.34;4128969;28;20682;-45
2023/06/04 07:00:40;;;;;;;0.98;0.88;;;;;;;17.28;55.20;98769.34;4095482;29;20258;-47
2023/06/04 07:02:42;;;;;;;1.90;1.35;;;;;;;17.54;55.10;98784.69;4108776;28;20222;-45
2023/06/04 07:04:44;;;;;;;4.32;1.13;;;;;;;17.50;53.43;98777.22;4110960;28;20210;-45
2023/06/04 07:06:45;;;;;;;2.08;0.98;;;;;;;17.42;54.67;98777.84;4095564;28;20214;-46
2023/06/04 07:08:48;;;;;;;7.07;1.38;;;;;;;17.37;52.66;98769.56;4110052;28;20207;-45
2023/06/04 07:10:50;;;;;;;2.67;1.35;;;;;;;17.44;52.08;98775.63;4111069;28;20215;-44
2023/06/04 07:12:52;;;;;;;2.85;1.05;;;;;;;17.95;53.27;98776.84;4111732;28;20227;-44
2023/06/04 07:14:53;;;;;;;3.35;1.23;;;;;;;17.68;51.99;98784.84;4117135;28;20210;-44
2023/06/04 07:16:55;;;;;;;1.33;0.90;;;;;;;17.74;52.32;98783.69;4105638;28;20273;-45
2023/06/04 07:18:57;;;;;;;3.03;1.05;;;;;;;17.80;50.13;98780.56;4106847;28;20214;-44
2023/06/04 07:20:58;;;;;;;7.88;1.13;;;;;;;18.31;50.07;98775.44;4105764;28;20214;-45
2023/06/04 07:23:00;;;;;;;1.35;0.80;;;;;;;18.37;49.33;98777.00;4111629;28;20234;-45
2023/06/04 07:25:02;;;;;;;3.05;1.08;;;;;;;18.52;48.80;98776.84;4111629;28;20211;-45
2023/06/04 07:27:13;;;;;;;1.23;1.10;;;;;;;18.43;48.52;98778.59;4110632;28;20211;-45
2023/06/04 07:29:15;;;;;;;4.03;1.10;;;;;;;18.72;47.39;98779.38;4109200;28;20214;-45
2023/06/04 07:31:17;;;;;;;2.83;1.02;;;;;;;19.05;46.97;98775.63;4093918;28;20207;-45
2023/06/04 07:33:19;;;;;;;1.05;1.05;;;;;;;19.23;47.54;98772.03;4109440;28;20257;-45
2023/06/04 07:35:20;;;;;;;2.00;1.10;;;;;;;18.90;46.75;98773.84;4110604;28;20249;-44
2023/06/04 07:37:22;;;;;;;4.65;1.10;;;;;;;19.23;47.02;98777.59;4104739;28;20209;-45
2023/06/04 07:39:24;;;;;;;1.45;0.90;;;;;;;19.33;46.91;98772.75;4110789;28;20210;-45
2023/06/04 07:41:27;;;;;;;0.88;0.70;;;;;;;19.55;46.36;98774.88;4109229;28;20209;-45
2023/06/04 07:43:28;;;;;;;1.95;0.95;;;;;;;18.90;45.89;98779.41;4113048;28;20806;-44
2023/06/04 07:45:30;;;;;;;1.77;0.90;;;;;;;19.05;47.24;98786.72;4107437;28;20211;-45
2023/06/04 07:47:36;;;;;;;1.77;1.27;;;;;;;18.67;46.07;98790.53;4106637;28;20293;-45
2023/06/04 07:49:38;;;;;;;2.00;1.17;;;;;;;18.46;46.32;98780.78;4110682;28;20682;-45
2023/06/04 07:51:54;;;;;;;1.48;0.90;;;;;;;18.95;46.79;98786.84;4122962;28;20714;-44
2023/06/04 07:53:56;;;;;;;1.70;1.20;;;;;;;19.13;45.43;98783.25;4110209;28;20230;-44
2023/06/04 07:55:58;;;;;;;2.53;0.90;;;;;;;19.57;46.53;98781.78;4105462;28;20626;-44
2023/06/04 07:58:00;;;;;;;4.72;1.48;;;;;;;19.80;45.88;98780.88;4101986;28;20214;-44
2023/06/04 08:00:07;;;;;;;1.75;1.00;;;;;;;20.06;45.36;98781.28;4107482;28;20210;-45
2023/06/04 08:02:09;;;;;;;1.10;0.80;;;;;;;20.26;45.18;98781.72;4109533;28;20281;-45
2023/06/04 08:04:11;;;;;;;6.07;1.10;;;;;;;20.15;44.87;98776.66;4109787;28;20290;-45
2023/06/04 08:06:14;;;;;;;1.00;0.93;;;;;;;20.01;44.35;98781.34;4087426;28;20237;-45
2023/06/04 08:08:16;;;;;;;2.10;1.58;;;;;;;20.04;43.65;98778.78;4105888;28;20257;-45
2023/06/04 08:10:17;;;;;;;1.88;1.40;;;;;;;19.77;45.48;98773.13;4124119;28;20231;-45
2023/06/04 08:12:20;;;;;;;1.92;0.95;;;;;;;20.33;47.17;98770.22;4109954;28;20207;-44
2023/06/04 08:14:22;;;;;;;7.35;1.30;;;;;;;20.54;44.30;98771.47;4094169;28;20235;-45
2023/06/04 08:16:24;;;;;;;1.20;0.80;;;;;;;20.41;44.52;98775.06;4107518;28;20214;-44
2023/06/04 08:18:26;;;;;;;2.22;1.60;;;;;;;20.31;43.92;98773.31;4107817;28;20209;-44
2023/06/04 08:20:28;;;;;;;3.55;1.63;;;;;;;20.16;44.55;98781.09;4094357;28;20262;-44
2023/06/04 08:22:30;;;;;;;1.75;1.05;;;;;;;19.99;45.07;98775.28;4110278;28;20233;-44
2023/06/04 08:24:31;;;;;;;3.03;1.30;;;;;;;19.85;44.75;98769.66;4110202;28;20216;-45
2023/06/04 08:26:33;;;;;;;3.55;1.00;;;;;;;20.26;45.82;98775.34;4107750;28;20268;-44
2023/06/04 08:28:35;;;;;;;2.17;0.82;;;;;;;20.26;45.54;98780.91;4109180;28;20214;-43
2023/06/04 08:30:37;;;;;;;1.58;0.82;;;;;;;20.52;45.51;98779.31;4103084;28;20203;-44
2023/06/04 08:32:40;;;;;;;1.15;0.90;;;;;;;20.74;45.09;98783.03;4093239;28;20795;-44
2023/06/04 08:34:42;;;;;;;5.88;1.13;;;;;;;21.20;44.76;98780.13;4110678;28;20249;-44
2023/06/04 08:36:44;;;;;;;4.72;1.30;;;;;;;21.02;43.80;98783.84;4108812;28;20222;-44
2023/06/04 08:38:45;;;;;;;5.90;1.20;;;;;;;21.11;44.11;98782.00;4109831;28;20321;-45
2023/06/04 08:40:53;;;;;;;2.55;0.90;;;;;;;20.88;43.64;98788.59;4108547;28;20352;-44
2023/06/04 08:42:58;;;;;;;0.98;0.90;;;;;;;21.27;43.79;98786.94;4109091;28;20996;-44
2023/06/04 08:45:00;;;;;;;1.65;1.30;;;;;;;21.12;44.01;98792.00;4110303;28;20202;-44
2023/06/04 08:47:04;;;;;;;3.50;1.08;;;;;;;21.16;44.93;98796.63;4092465;28;20211;-44
2023/06/04 08:49:07;;;;;;;2.13;1.33;;;;;;;20.90;43.67;98800.28;4109959;28;20684;-44
2023/06/04 08:51:10;;;;;;;2.05;0.90;;;;;;;21.22;44.19;98791.75;4108708;28;20210;-44
2023/06/04 08:53:13;;;;;;;1.85;1.30;;;;;;;21.54;43.25;98802.72;4108771;28;20234;-45
2023/06/04 08:55:16;;;;;;;1.35;0.90;;;;;;;21.58;42.32;98790.63;4093516;28;20214;-45
2023/06/04 08:57:21;;;;;;;2.70;1.20;;;;;;;21.87;44.13;98795.81;4111144;28;20303;-45
2023/06/04 08:59:23;;;;;;;1.13;0.90;;;;;;;22.14;42.88;98804.91;4122592;28;20241;-45
2023/06/04 09:01:24;;;;;;;0.80;0.73;;;;;;;21.94;42.73;98797.03;4105632;28;20207;-44
2023/06/04 09:03:26;;;;;;;3.25;1.52;;;;;;;21.90;42.62;98792.44;4104563;28;20304;-44
2023/06/04 09:05:29;;;;;;;1.95;1.13;;;;;;;22.04;42.40;98801.53;4108629;28;20301;-45
2023/06/04 09:07:31;;;;;;;2.38;1.15;;;;;;;22.24;43.44;98795.44;4108390;28;20565;-44
2023/06/04 09:09:37;;;;;;;2.25;0.93;;;;;;;21.66;42.88;98794.66;4093509;28;20752;-44
2023/06/04 09:11:46;;;;;;;3.35;1.10;;;;;;;21.55;43.62;98798.81;4121724;28;20216;-44
2023/06/04 09:13:49;;;;;;;4.47;1.30;;;;;;;22.01;43.32;98791.00;4102320;28;20230;-46
2023/06/04 09:16:01;;;;;;;2.00;0.82;;;;;;;22.34;42.61;98797.94;4102964;28;20210;-45
2023/06/04 09:18:03;;;;;;;1.77;1.08;;;;;;;22.86;42.42;98797.09;4101356;28;20217;-44
2023/06/04 09:20:09;;;;;;;1.38;1.00;;;;;;;23.37;41.99;98794.47;4110524;28;20214;-45
2023/06/04 09:22:11;;;;;;;1.73;1.00;;;;;;;23.78;41.32;98799.28;4112978;28;20604;-45
2023/06/04 09:24:12;;;;;;;3.28;1.38;;;;;;;23.37;41.39;98809.25;4111829;28;20234;-44
2023/06/04 09:26:15;;;;;;;6.20;1.30;;;;;;;23.17;41.26;98809.88;4096450;28;20673;-45
2023/06/04 09:28:16;;;;;;;1.30;0.90;;;;;;;23.43;41.06;98802.38;4109691;28;20206;-44
2023/06/04 09:30:18;;;;;;;1.70;1.50;;;;;;;23.25;41.73;98805.47;4094430;28;20669;-45
2023/06/04 09:32:27;;;;;;;1.88;1.00;;;;;;;22.40;41.43;98805.88;4094196;28;20246;-44
2023/06/04 09:34:30;;;;;;;0.93;0.75;;;;;;;22.80;41.82;98798.38;4107422;28;20230;-44
2023/06/04 09:36:35;;;;;;;3.88;1.00;;;;;;;23.19;42.32;98787.22;4106352;28;20211;-44
2023/06/04 09:38:38;;;;;;;2.08;1.20;;;;;;;22.91;40.94;98799.75;4112881;28;20286;-43